Time;durP1;ratioP1;P1;durP2;ratioP2;P2;SDS_P1;SDS_P2;PMS_P1;PMS_P2;Temp;Humidity;BMP_temperature;BMP_pressure;BME280_temperature;BME280_humidity;BME280_pressure;Samples;Min_cycle;Max_cycle;Signal;HPM_P1;HPM_P2
2021/06/05 00:02:23;;;;;;;1999.90;999.90;;;17.50;99.90;;;;;;5038766;28;20193;-73
2021/06/05 00:04:58;;;;;;;1999.90;999.90;;;17.50;99.90;;;;;;5036249;28;20194;-75
2021/06/05 00:07:24;;;;;;;1999.90;999.90;;;17.50;99.90;;;;;;5038499;28;20312;-74
2021/06/05 00:09:50;;;;;;;1999.90;999.90;;;17.50;99.90;;;;;;5038168;28;20180;-73
2021/06/05 00:12:19;;;;;;;1999.90;999.90;;;17.40;99.90;;;;;;5038435;28;20171;-74
2021/06/05 00:14:44;;;;;;;1999.90;999.90;;;17.40;99.90;;;;;;5038734;28;20226;-74
2021/06/05 00:17:10;;;;;;;1999.90;999.90;;;17.40;99.90;;;;;;5038863;28;20213;-74
2021/06/05 00:19:36;;;;;;;1999.90;999.90;;;17.40;99.90;;;;;;5038126;28;20182;-73
2021/06/05 00:22:02;;;;;;;1999.90;999.90;;;17.30;99.90;;;;;;5038893;28;20238;-74
2021/06/05 00:24:28;;;;;;;1999.90;999.90;;;17.30;99.90;;;;;;5038646;28;20204;-73
2021/06/05 00:26:53;;;;;;;1999.90;999.90;;;17.20;99.90;;;;;;5038799;28;20181;-73
2021/06/05 00:29:20;;;;;;;1999.90;999.90;;;17.10;99.90;;;;;;5037245;28;20197;-73
2021/06/05 00:31:46;;;;;;;1999.90;999.90;;;17.10;99.90;;;;;;5038953;28;20659;-73
2021/06/05 00:34:12;;;;;;;1999.90;999.90;;;17.10;99.90;;;;;;5038435;28;20207;-73
2021/06/05 00:36:38;;;;;;;1999.90;999.90;;;17.10;99.90;;;;;;5038727;28;20250;-72
2021/06/05 00:39:05;;;;;;;1999.90;999.90;;;17.10;99.90;;;;;;5038574;28;20587;-74
2021/06/05 00:41:31;;;;;;;1999.90;999.90;;;17.10;99.90;;;;;;5035916;28;20220;-73
2021/06/05 00:44:00;;;;;;;1999.90;999.90;;;17.10;99.90;;;;;;5035560;28;20202;-74
2021/06/05 00:46:27;;;;;;;1999.90;999.90;;;17.10;99.90;;;;;;5035493;28;20644;-74
2021/06/05 00:48:54;;;;;;;1999.90;999.90;;;16.90;99.90;;;;;;5035446;28;20279;-73
2021/06/05 00:51:24;;;;;;;1999.90;999.90;;;16.90;99.90;;;;;;5035369;28;20659;-73
2021/06/05 00:53:50;;;;;;;1999.90;999.90;;;16.80;99.90;;;;;;5035030;28;20197;-75
2021/06/05 00:56:17;;;;;;;1999.90;999.90;;;16.90;99.90;;;;;;5034902;28;20574;-73
2021/06/05 00:58:43;;;;;;;1999.90;999.90;;;16.70;99.90;;;;;;5045597;28;20180;-74
2021/06/05 01:01:21;;;;;;;1999.90;999.90;;;16.70;99.90;;;;;;5043711;28;20231;-74
2021/06/05 01:03:47;;;;;;;1999.90;999.90;;;16.70;99.90;;;;;;5035039;28;20202;-75
2021/06/05 01:06:23;;;;;;;1999.90;999.90;;;16.70;99.90;;;;;;5035177;28;20182;-74
2021/06/05 01:09:08;;;;;;;1999.90;999.90;;;16.80;99.90;;;;;;5035040;28;20537;-74
2021/06/05 01:11:58;;;;;;;1999.90;999.90;;;16.80;99.90;;;;;;5035125;28;20651;-73
2021/06/05 01:14:45;;;;;;;1999.90;999.90;;;16.90;99.90;;;;;;5034728;28;20198;-74
2021/06/05 01:17:24;;;;;;;1999.90;999.90;;;16.90;99.90;;;;;;5034968;28;20709;-74
2021/06/05 01:20:08;;;;;;;1999.90;999.90;;;16.70;99.90;;;;;;5034877;28;20178;-75
2021/06/05 01:22:58;;;;;;;1999.90;999.90;;;16.60;99.90;;;;;;5034787;28;20522;-74
2021/06/05 01:25:48;;;;;;;1999.90;999.90;;;16.60;99.90;;;;;;5034834;28;20204;-73
2021/06/05 01:28:25;;;;;;;1999.90;999.90;;;16.80;99.90;;;;;;5033283;28;20578;-74
2021/06/05 01:30:54;;;;;;;1999.90;999.90;;;16.80;99.90;;;;;;5016907;28;20193;-74
2021/06/05 01:33:24;;;;;;;1999.90;999.90;;;16.60;99.90;;;;;;5034784;28;20193;-73
2021/06/05 01:35:51;;;;;;;1999.90;999.90;;;16.60;99.90;;;;;;5018937;28;20268;-74
2021/06/05 01:38:18;;;;;;;1999.90;999.90;;;16.70;99.90;;;;;;5034748;28;20664;-74
2021/06/05 01:40:47;;;;;;;1999.90;999.90;;;16.70;99.90;;;;;;5034523;28;20181;-74
2021/06/05 01:43:16;;;;;;;1999.90;999.90;;;16.60;99.90;;;;;;5040534;28;20267;-73
2021/06/05 01:45:43;;;;;;;1999.90;999.90;;;16.50;99.90;;;;;;5034439;28;20184;-74
2021/06/05 01:48:11;;;;;;;1999.90;999.90;;;16.50;99.90;;;;;;5034368;28;20213;-73
2021/06/05 01:50:39;;;;;;;1999.90;999.90;;;16.60;99.90;;;;;;5034350;28;20216;-74
2021/06/05 01:53:10;;;;;;;1999.90;999.90;;;16.70;99.90;;;;;;5033636;28;20252;-74
2021/06/05 01:55:45;;;;;;;1999.90;999.90;;;16.60;99.90;;;;;;5033889;28;20184;-74
2021/06/05 01:58:14;;;;;;;1999.90;999.90;;;16.60;99.90;;;;;;5034257;28;20238;-74
2021/06/05 02:00:44;;;;;;;1999.90;999.90;;;16.60;99.90;;;;;;5033883;28;20660;-74
2021/06/05 02:03:11;;;;;;;1999.90;999.90;;;16.60;99.90;;;;;;5034056;28;20667;-74
2021/06/05 02:05:39;;;;;;;1999.90;999.90;;;16.70;99.90;;;;;;5033922;28;20595;-74
2021/06/05 02:08:06;;;;;;;1999.90;999.90;;;16.70;99.90;;;;;;5033894;28;20696;-74
2021/06/05 02:10:33;;;;;;;1999.90;999.90;;;16.60;99.90;;;;;;5034034;28;20195;-74
2021/06/05 02:12:59;;;;;;;1999.90;999.90;;;16.60;99.90;;;;;;5030576;28;20650;-74
2021/06/05 02:15:42;;;;;;;1999.90;999.90;;;16.50;99.90;;;;;;5032214;28;20200;-74
2021/06/05 02:18:13;;;;;;;1999.90;999.90;;;16.60;99.90;;;;;;5029385;28;20187;-74
2021/06/05 02:20:48;;;;;;;1999.90;999.90;;;16.70;99.90;;;;;;5030643;28;20182;-74
2021/06/05 02:23:20;;;;;;;1999.90;999.90;;;16.50;99.90;;;;;;5033294;28;20187;-74
2021/06/05 02:25:45;;;;;;;1999.90;999.90;;;16.50;99.90;;;;;;5033297;28;20169;-74
2021/06/05 02:28:13;;;;;;;1999.90;999.90;;;16.50;99.90;;;;;;5032665;28;20575;-74
2021/06/05 02:30:39;;;;;;;1999.90;999.90;;;16.60;99.90;;;;;;5033667;28;20181;-74
2021/06/05 02:33:06;;;;;;;1999.90;999.90;;;16.60;99.90;;;;;;5033381;28;20185;-74
2021/06/05 02:35:38;;;;;;;1999.90;999.90;;;16.60;99.90;;;;;;5032240;28;20197;-74
2021/06/05 02:38:05;;;;;;;1999.90;999.90;;;16.70;99.90;;;;;;5032094;28;20182;-73
2021/06/05 02:40:34;;;;;;;1999.90;999.90;;;16.70;99.90;;;;;;5033274;28;20179;-74
2021/06/05 02:43:06;;;;;;;1999.90;999.90;;;16.80;99.90;;;;;;5033202;28;20233;-74
2021/06/05 02:45:47;;;;;;;1999.90;999.90;;;16.70;99.90;;;;;;5033634;28;20187;-74
2021/06/05 02:48:13;;;;;;;1999.90;999.90;;;16.70;99.90;;;;;;5033047;28;20209;-74
2021/06/05 02:50:53;;;;;;;1999.90;999.90;;;16.70;99.90;;;;;;5033385;28;20593;-74
2021/06/05 02:53:20;;;;;;;1999.90;999.90;;;16.80;99.90;;;;;;5035075;28;20233;-74
2021/06/05 02:55:47;;;;;;;1999.90;999.90;;;16.80;99.90;;;;;;5033419;28;20192;-74
2021/06/05 02:58:13;;;;;;;1999.90;999.90;;;16.80;99.90;;;;;;5032291;28;20189;-74
2021/06/05 03:00:48;;;;;;;1999.90;999.90;;;16.80;99.90;;;;;;5033084;28;20182;-74
2021/06/05 03:03:17;;;;;;;1999.90;999.90;;;16.80;99.90;;;;;;5032996;28;20201;-73
2021/06/05 03:05:42;;;;;;;1999.90;999.90;;;16.70;99.90;;;;;;5032636;28;20269;-74
2021/06/05 03:08:11;;;;;;;1999.90;999.90;;;16.70;99.90;;;;;;5033019;28;20753;-74
2021/06/05 03:10:38;;;;;;;1999.90;999.90;;;16.60;99.90;;;;;;5030676;28;20188;-74
2021/06/05 03:13:06;;;;;;;1999.90;999.90;;;16.50;99.90;;;;;;5032969;28;20664;-74
2021/06/05 03:15:32;;;;;;;1999.90;999.90;;;16.50;99.90;;;;;;5038533;28;20791;-74
2021/06/05 03:17:58;;;;;;;1999.90;999.90;;;16.50;99.90;;;;;;5032767;28;20270;-74
2021/06/05 03:20:28;;;;;;;1999.90;999.90;;;16.50;99.90;;;;;;5032834;28;20185;-74
2021/06/05 03:22:55;;;;;;;1999.90;999.90;;;16.50;99.90;;;;;;5032866;28;20209;-74
2021/06/05 03:25:21;;;;;;;1999.90;999.90;;;16.50;99.90;;;;;;5032710;28;20201;-74
2021/06/05 03:27:47;;;;;;;1999.90;999.90;;;16.50;99.90;;;;;;5031151;28;20206;-74
2021/06/05 03:30:14;;;;;;;1999.90;999.90;;;16.60;99.90;;;;;;5031449;28;20642;-74
2021/06/05 03:32:40;;;;;;;1999.90;999.90;;;16.60;99.90;;;;;;5032520;28;20187;-74
2021/06/05 03:35:07;;;;;;;1999.90;999.90;;;16.60;99.90;;;;;;5032564;28;20302;-74
2021/06/05 03:37:33;;;;;;;1999.90;999.90;;;16.60;99.90;;;;;;5031763;28;20185;-75
2021/06/05 03:40:00;;;;;;;1999.90;999.90;;;16.60;99.90;;;;;;5032251;28;20189;-75
2021/06/05 03:42:26;;;;;;;1999.90;999.90;;;16.60;99.90;;;;;;5032657;28;20269;-74
2021/06/05 03:44:55;;;;;;;1999.90;999.90;;;16.60;99.90;;;;;;5039374;28;20636;-74
2021/06/05 03:47:22;;;;;;;1999.90;999.90;;;16.70;99.90;;;;;;5040659;28;20185;-74
2021/06/05 03:49:51;;;;;;;1999.90;999.90;;;16.60;99.90;;;;;;5032343;28;20198;-75
2021/06/05 03:52:22;;;;;;;1999.90;999.90;;;16.60;99.90;;;;;;5032520;28;20190;-74
2021/06/05 03:54:52;;;;;;;1999.90;999.90;;;16.60;99.90;;;;;;5032360;28;20221;-74
2021/06/05 03:57:19;;;;;;;1999.90;999.90;;;16.50;99.90;;;;;;5034766;28;20645;-74
2021/06/05 03:59:45;;;;;;;1999.90;999.90;;;16.60;99.90;;;;;;5034120;28;20272;-74
2021/06/05 04:02:11;;;;;;;1999.90;999.90;;;16.60;99.90;;;;;;5033757;28;20206;-74
2021/06/05 04:04:36;;;;;;;1999.90;999.90;;;16.70;99.90;;;;;;5043135;28;20680;-74
2021/06/05 04:07:08;;;;;;;1999.90;999.90;;;16.70;99.90;;;;;;5041283;28;20272;-75
2021/06/05 04:09:38;;;;;;;1999.90;999.90;;;16.70;99.90;;;;;;5045602;28;20199;-74
2021/06/05 04:12:05;;;;;;;1999.90;999.90;;;16.70;99.90;;;;;;5043343;28;20202;-74
2021/06/05 04:14:31;;;;;;;1999.90;999.90;;;16.70;99.90;;;;;;5045443;28;20652;-74
2021/06/05 04:16:57;;;;;;;1999.90;999.90;;;16.70;99.90;;;;;;5042981;28;20181;-75
2021/06/05 04:19:23;;;;;;;1999.90;999.90;;;16.60;99.90;;;;;;5043210;28;20600;-74
2021/06/05 04:21:49;;;;;;;1999.90;999.90;;;16.60;99.90;;;;;;5047935;28;20180;-74
2021/06/05 04:24:15;;;;;;;1999.90;999.90;;;16.60;99.90;;;;;;5043859;28;20232;-74
2021/06/05 04:26:40;;;;;;;1999.90;999.90;;;16.50;99.90;;;;;;5047977;28;20185;-74
2021/06/05 04:29:06;;;;;;;1999.90;999.90;;;16.60;99.90;;;;;;5031758;28;20292;-73
2021/06/05 04:31:32;;;;;;;1999.90;999.90;;;16.50;99.90;;;;;;5051015;28;20177;-74
2021/06/05 04:33:58;;;;;;;1999.90;999.90;;;16.50;99.90;;;;;;5030933;28;20244;-75
2021/06/05 04:36:23;;;;;;;1999.90;999.90;;;16.60;99.90;;;;;;5033866;28;20176;-73
2021/06/05 04:38:49;;;;;;;1999.90;999.90;;;16.60;99.90;;;;;;5017558;28;20176;-73
2021/06/05 04:41:19;;;;;;;1999.90;999.90;;;16.40;99.90;;;;;;5034921;28;20190;-72
2021/06/05 04:43:45;;;;;;;1999.90;999.90;;;16.30;99.90;;;;;;5037186;28;20299;-74
2021/06/05 04:46:13;;;;;;;1999.90;999.90;;;16.30;99.90;;;;;;5024049;28;20738;-75
2021/06/05 04:48:39;;;;;;;1999.90;999.90;;;16.40;99.90;;;;;;5040313;28;20212;-74
2021/06/05 04:51:06;;;;;;;1999.90;999.90;;;16.40;99.90;;;;;;5046270;28;20184;-74
2021/06/05 04:53:32;;;;;;;1999.90;999.90;;;16.40;99.90;;;;;;5042621;28;20265;-74
2021/06/05 04:55:59;;;;;;;1999.90;999.90;;;16.40;99.90;;;;;;5051081;28;20237;-74
2021/06/05 04:58:25;;;;;;;1999.90;999.90;;;16.50;99.90;;;;;;5035411;28;20213;-75
2021/06/05 05:00:53;;;;;;;1999.90;999.90;;;16.50;99.90;;;;;;5036469;28;20306;-74
2021/06/05 05:03:22;;;;;;;1999.90;999.90;;;16.40;99.90;;;;;;5036220;28;20271;-74
2021/06/05 05:05:49;;;;;;;1999.90;999.90;;;16.50;99.90;;;;;;5031897;28;20188;-74
2021/06/05 05:08:17;;;;;;;1999.90;999.90;;;16.60;99.90;;;;;;5033160;28;20225;-74
2021/06/05 05:10:46;;;;;;;1999.90;999.90;;;16.60;99.90;;;;;;5032696;28;20218;-75
2021/06/05 05:13:16;;;;;;;1999.90;999.90;;;16.50;99.90;;;;;;5034959;28;20541;-74
2021/06/05 05:15:43;;;;;;;1999.90;999.90;;;16.50;99.90;;;;;;5033831;28;20189;-74
2021/06/05 05:18:09;;;;;;;1999.90;999.90;;;16.30;99.90;;;;;;5034975;28;20189;-75
2021/06/05 05:20:38;;;;;;;1999.90;999.90;;;16.40;99.90;;;;;;5034960;28;20181;-74
2021/06/05 05:23:06;;;;;;;1999.90;999.90;;;16.50;99.90;;;;;;5034910;28;20637;-74
2021/06/05 05:25:33;;;;;;;1999.90;999.90;;;16.60;99.90;;;;;;5033441;28;20197;-75
2021/06/05 05:28:01;;;;;;;1999.90;999.90;;;16.70;99.90;;;;;;5034474;28;20344;-74
2021/06/05 05:30:41;;;;;;;1999.90;999.90;;;16.60;99.90;;;;;;5048117;28;20187;-75
2021/06/05 05:33:08;;;;;;;1999.90;999.90;;;16.70;99.90;;;;;;5051816;28;20195;-74
2021/06/05 05:35:35;;;;;;;1999.90;999.90;;;16.70;99.90;;;;;;5033928;28;20184;-74
2021/06/05 05:38:02;;;;;;;1999.90;999.90;;;16.80;99.90;;;;;;5040948;28;20213;-75
2021/06/05 05:40:28;;;;;;;1999.90;999.90;;;16.80;99.90;;;;;;5048009;28;20624;-74
2021/06/05 05:42:54;;;;;;;1999.90;999.90;;;16.80;99.90;;;;;;5050502;28;20180;-74
2021/06/05 05:45:21;;;;;;;1999.90;999.90;;;16.80;99.90;;;;;;5022141;28;20304;-74
2021/06/05 05:47:47;;;;;;;1999.90;999.90;;;16.70;99.90;;;;;;5034366;28;20182;-75
2021/06/05 05:50:15;;;;;;;1999.90;999.90;;;16.90;99.90;;;;;;5034411;28;20175;-75
2021/06/05 05:52:41;;;;;;;1999.90;999.90;;;16.90;99.90;;;;;;5034330;28;20177;-75
2021/06/05 05:55:08;;;;;;;1999.90;999.90;;;17.00;99.90;;;;;;5033107;28;20209;-74
2021/06/05 05:57:34;;;;;;;1999.90;999.90;;;17.00;99.90;;;;;;5032012;28;20265;-75
2021/06/05 06:00:00;;;;;;;1999.90;999.90;;;17.10;99.90;;;;;;5045293;28;20708;-74
2021/06/05 06:02:26;;;;;;;1999.90;999.90;;;17.10;99.90;;;;;;5037122;28;20185;-74
2021/06/05 06:04:52;;;;;;;1999.90;999.90;;;17.20;99.90;;;;;;5034432;28;20562;-74
2021/06/05 06:07:17;;;;;;;1999.90;999.90;;;17.00;99.90;;;;;;5034451;28;20240;-75
2021/06/05 06:09:43;;;;;;;1999.90;999.90;;;17.00;99.90;;;;;;5034136;28;20210;-74
2021/06/05 06:12:09;;;;;;;1999.90;999.90;;;16.90;99.90;;;;;;5034207;28;20181;-73
2021/06/05 06:14:34;;;;;;;1999.90;999.90;;;17.00;99.90;;;;;;5032530;28;20204;-75
2021/06/05 06:17:00;;;;;;;1999.90;999.90;;;16.90;99.90;;;;;;5032575;28;20181;-74
2021/06/05 06:19:26;;;;;;;1999.90;999.90;;;16.90;99.90;;;;;;5034028;28;20344;-74
2021/06/05 06:21:52;;;;;;;1999.90;999.90;;;16.80;99.90;;;;;;5032908;28;20187;-74
2021/06/05 06:24:18;;;;;;;1999.90;999.90;;;16.90;99.90;;;;;;5033902;28;20235;-75
2021/06/05 06:26:43;;;;;;;1999.90;999.90;;;17.00;99.90;;;;;;5033807;28;20181;-75
2021/06/05 06:29:16;;;;;;;1999.90;999.90;;;16.90;99.90;;;;;;5033786;28;20198;-75
2021/06/05 06:31:43;;;;;;;1999.90;999.90;;;17.00;99.90;;;;;;5017156;28;20175;-74
2021/06/05 06:34:09;;;;;;;1999.90;999.90;;;16.90;99.90;;;;;;5033645;28;20268;-73
2021/06/05 06:36:36;;;;;;;1999.90;999.90;;;17.00;99.90;;;;;;5032121;28;20665;-75
2021/06/05 06:39:02;;;;;;;1999.90;999.90;;;17.20;99.90;;;;;;5023083;28;20201;-75
2021/06/05 06:41:30;;;;;;;1999.90;999.90;;;17.30;99.90;;;;;;5033184;28;20682;-75
2021/06/05 06:43:57;;;;;;;1999.90;999.90;;;17.30;99.90;;;;;;5033443;28;20672;-75
2021/06/05 06:46:27;;;;;;;1999.90;999.90;;;17.40;99.90;;;;;;5033105;28;20601;-73
2021/06/05 06:48:55;;;;;;;1999.90;999.90;;;17.40;99.90;;;;;;5033183;28;20205;-73
2021/06/05 06:51:22;;;;;;;1999.90;999.90;;;17.30;99.90;;;;;;5033515;28;20182;-74
2021/06/05 06:53:48;;;;;;;1999.90;999.90;;;17.30;99.90;;;;;;5033631;28;20226;-74
2021/06/05 06:56:16;;;;;;;1999.90;999.90;;;17.40;99.90;;;;;;5033845;28;20271;-74
2021/06/05 06:58:43;;;;;;;1999.90;999.90;;;17.40;99.90;;;;;;5032610;28;20206;-74
2021/06/05 07:01:11;;;;;;;1999.90;999.90;;;17.40;99.90;;;;;;5032153;28;20583;-74
2021/06/05 07:03:37;;;;;;;1999.90;999.90;;;17.40;99.90;;;;;;5032086;28;20697;-74
2021/06/05 07:06:03;;;;;;;1999.90;999.90;;;17.40;99.90;;;;;;5033398;28;20192;-74
2021/06/05 07:08:32;;;;;;;1999.90;999.90;;;17.50;99.90;;;;;;5032517;28;20205;-75
2021/06/05 07:11:01;;;;;;;1999.90;999.90;;;17.40;99.90;;;;;;5032506;28;20193;-75
2021/06/05 07:13:27;;;;;;;1999.90;999.90;;;17.30;99.90;;;;;;5032764;28;20870;-74
2021/06/05 07:15:55;;;;;;;1999.90;999.90;;;17.30;99.90;;;;;;5032955;28;20176;-74
2021/06/05 07:18:22;;;;;;;1999.90;999.90;;;17.40;99.90;;;;;;5035678;28;20213;-74
2021/06/05 07:20:49;;;;;;;1999.90;999.90;;;17.30;99.90;;;;;;5028325;28;20194;-74
2021/06/05 07:23:17;;;;;;;1999.90;999.90;;;17.40;99.90;;;;;;5033099;28;20191;-74
2021/06/05 07:25:43;;;;;;;1999.90;999.90;;;17.40;99.90;;;;;;5033294;28;20181;-74
2021/06/05 07:28:18;;;;;;;1999.90;999.90;;;17.50;99.90;;;;;;5031669;28;20205;-74
2021/06/05 07:30:45;;;;;;;1999.90;999.90;;;17.60;99.90;;;;;;5033073;28;20652;-75
2021/06/05 07:33:10;;;;;;;1999.90;999.90;;;17.60;99.90;;;;;;5034041;28;20307;-74
2021/06/05 07:35:37;;;;;;;1999.90;999.90;;;17.70;99.90;;;;;;5037530;28;20649;-74
2021/06/05 07:38:02;;;;;;;1999.90;999.90;;;17.70;99.90;;;;;;5032968;28;20272;-74
2021/06/05 07:40:28;;;;;;;1999.90;999.90;;;17.80;99.90;;;;;;5031396;28;20563;-74
2021/06/05 07:42:54;;;;;;;1999.90;999.90;;;17.70;99.90;;;;;;5032790;28;20221;-74
2021/06/05 07:45:20;;;;;;;1999.90;999.90;;;17.70;99.90;;;;;;5032845;28;20216;-75
2021/06/05 07:47:46;;;;;;;1999.90;999.90;;;17.80;99.90;;;;;;5032953;28;20601;-74
2021/06/05 07:50:13;;;;;;;1999.90;999.90;;;17.80;99.90;;;;;;5032878;28;20181;-74
2021/06/05 07:52:39;;;;;;;1999.90;999.90;;;17.90;99.90;;;;;;5036360;28;20208;-73
2021/06/05 07:55:06;;;;;;;1999.90;999.90;;;17.90;99.90;;;;;;5037717;28;20196;-73
2021/06/05 07:57:33;;;;;;;1999.90;999.90;;;17.90;99.90;;;;;;5051085;28;20679;-75
2021/06/05 07:59:58;;;;;;;1999.90;999.90;;;17.90;99.90;;;;;;5047210;28;20187;-75
2021/06/05 08:02:24;;;;;;;1999.90;999.90;;;17.90;99.90;;;;;;5040514;28;20173;-74
2021/06/05 08:04:50;;;;;;;1999.90;999.90;;;17.90;99.90;;;;;;5039295;28;20216;-74
2021/06/05 08:07:16;;;;;;;1999.90;999.90;;;17.80;99.90;;;;;;5042135;28;20546;-74
2021/06/05 08:09:42;;;;;;;1999.90;999.90;;;17.70;99.90;;;;;;5042264;28;20212;-74
2021/06/05 08:12:09;;;;;;;1999.90;999.90;;;17.70;99.90;;;;;;5036469;28;20198;-73
2021/06/05 08:14:35;;;;;;;1999.90;999.90;;;17.70;99.90;;;;;;5036399;28;20197;-74
2021/06/05 08:17:01;;;;;;;1999.90;999.90;;;17.80;99.90;;;;;;5036407;28;20177;-75
2021/06/05 08:19:27;;;;;;;1999.90;999.90;;;17.90;99.90;;;;;;5036652;28;20551;-74
2021/06/05 08:21:53;;;;;;;1999.90;999.90;;;17.90;99.90;;;;;;5036416;28;20209;-74
2021/06/05 08:24:19;;;;;;;1999.90;999.90;;;17.70;99.90;;;;;;5036279;28;20198;-74
2021/06/05 08:26:46;;;;;;;1999.90;999.90;;;17.70;99.90;;;;;;5036209;28;20185;-73
2021/06/05 08:29:13;;;;;;;1999.90;999.90;;;17.60;99.90;;;;;;5036096;28;20204;-74
2021/06/05 08:31:39;;;;;;;1999.90;999.90;;;17.70;99.90;;;;;;5044229;28;20181;-74
2021/06/05 08:34:06;;;;;;;1999.90;999.90;;;17.80;99.90;;;;;;5036962;28;20217;-75
2021/06/05 08:36:33;;;;;;;1999.90;999.90;;;17.90;99.90;;;;;;5034888;28;20182;-74
2021/06/05 08:38:59;;;;;;;1999.90;999.90;;;17.80;99.90;;;;;;5035564;28;20182;-75
2021/06/05 08:41:35;;;;;;;1999.90;999.90;;;17.90;99.90;;;;;;5032938;28;20417;-74
2021/06/05 08:44:13;;;;;;;1999.90;999.90;;;18.00;99.90;;;;;;5034837;28;20198;-73
2021/06/05 08:46:56;;;;;;;1999.90;999.90;;;17.90;99.90;;;;;;5035273;28;20193;-72
2021/06/05 08:49:26;;;;;;;1999.90;999.90;;;17.90;99.90;;;;;;5035789;28;20198;-75
2021/06/05 08:52:05;;;;;;;1999.90;999.90;;;17.90;99.90;;;;;;5035614;28;20648;-73
2021/06/05 08:54:31;;;;;;;1999.90;999.90;;;17.80;99.90;;;;;;5035902;28;20242;-74
2021/06/05 08:57:07;;;;;;;1999.90;999.90;;;17.80;99.90;;;;;;5034490;28;20545;-74
2021/06/05 08:59:34;;;;;;;1999.90;999.90;;;17.80;99.90;;;;;;5038269;28;20242;-74
2021/06/05 09:02:01;;;;;;;1999.90;999.90;;;17.80;99.90;;;;;;5040374;28;20184;-74
2021/06/05 09:04:28;;;;;;;1999.90;999.90;;;17.80;99.90;;;;;;5033287;28;20210;-74
2021/06/05 09:06:59;;;;;;;1999.90;999.90;;;17.80;99.90;;;;;;5036198;28;20674;-74
2021/06/05 09:09:35;;;;;;;1999.90;999.90;;;17.80;99.90;;;;;;5036112;28;20316;-75
2021/06/05 09:12:02;;;;;;;1999.90;999.90;;;17.80;99.90;;;;;;5036294;28;20496;-74
2021/06/05 09:14:30;;;;;;;1999.90;999.90;;;17.70;99.90;;;;;;5041473;28;20217;-86
2021/06/05 09:17:12;;;;;;;1999.90;999.90;;;17.60;99.90;;;;;;5038116;28;20181;-87
2021/06/05 09:19:38;;;;;;;1999.90;999.90;;;17.70;99.90;;;;;;5035139;28;20264;-88
2021/06/05 09:22:06;;;;;;;1999.90;999.90;;;17.80;99.90;;;;;;5034480;28;20212;-87
2021/06/05 09:24:37;;;;;;;1999.90;999.90;;;17.70;99.90;;;;;;5035293;28;20563;-88
2021/06/05 09:27:18;;;;;;;1999.90;999.90;;;17.70;99.90;;;;;;5036007;28;20243;-88
2021/06/05 09:29:58;;;;;;;1999.90;999.90;;;17.70;99.90;;;;;;5037293;28;20200;-87
2021/06/05 09:32:28;;;;;;;1999.90;999.90;;;17.70;99.90;;;;;;5036539;28;20232;-87
2021/06/05 09:34:57;;;;;;;1999.90;999.90;;;17.60;99.90;;;;;;5035169;28;20205;-87
2021/06/05 09:37:41;;;;;;;1999.90;999.90;;;17.70;99.90;;;;;;5034880;28;20225;-87
2021/06/05 09:40:17;;;;;;;1999.90;999.90;;;17.70;99.90;;;;;;5033185;28;20770;-87
2021/06/05 09:42:45;;;;;;;1999.90;999.90;;;17.60;99.90;;;;;;5036337;28;20174;-79
2021/06/05 09:45:38;;;;;;;1999.90;999.90;;;17.60;99.90;;;;;;5038106;28;20205;-79
2021/06/05 09:48:25;;;;;;;1999.90;999.90;;;17.50;99.90;;;;;;5038095;28;20202;-79
2021/06/05 09:50:53;;;;;;;1999.90;999.90;;;17.50;99.90;;;;;;5037450;28;20526;-78
2021/06/05 09:53:39;;;;;;;1999.90;999.90;;;17.50;99.90;;;;;;5045900;28;20588;-79
2021/06/05 09:56:10;;;;;;;1999.90;999.90;;;17.50;99.90;;;;;;5034588;28;20877;-78
2021/06/05 09:58:43;;;;;;;1999.90;999.90;;;17.40;99.90;;;;;;5035377;28;20655;-78
2021/06/05 10:01:21;;;;;;;1999.90;999.90;;;17.50;99.90;;;;;;5038782;28;20207;-79
2021/06/05 10:03:50;;;;;;;1999.90;999.90;;;17.40;99.90;;;;;;5024384;28;20690;-78
2021/06/05 10:06:32;;;;;;;1999.90;999.90;;;17.40;99.90;;;;;;5050068;28;20263;-78
2021/06/05 10:08:57;;;;;;;1999.90;999.90;;;17.30;99.90;;;;;;5030271;28;20666;-78
2021/06/05 10:11:42;;;;;;;1999.90;999.90;;;17.20;99.90;;;;;;5032092;28;20299;-78
2021/06/05 10:14:16;;;;;;;1999.90;999.90;;;17.20;99.90;;;;;;5031909;28;20216;-77
2021/06/05 10:16:57;;;;;;;1999.90;999.90;;;17.20;99.90;;;;;;5034245;28;20182;-77
2021/06/05 10:19:49;;;;;;;1999.90;999.90;;;17.20;99.90;;;;;;5038560;28;20248;-82
2021/06/05 10:22:15;;;;;;;1999.90;999.90;;;17.20;99.90;;;;;;5037258;28;20181;-78
2021/06/05 10:24:44;;;;;;;1999.90;999.90;;;17.20;99.90;;;;;;5031746;28;20201;-78
2021/06/05 10:27:19;;;;;;;1999.90;999.90;;;17.20;99.90;;;;;;5035968;28;20217;-79
2021/06/05 10:29:48;;;;;;;1999.90;999.90;;;17.20;99.90;;;;;;5037502;28;20206;-78
2021/06/05 10:32:19;;;;;;;1999.90;999.90;;;17.20;99.90;;;;;;5036805;28;20545;-78
2021/06/05 10:34:53;;;;;;;1999.90;999.90;;;17.30;99.90;;;;;;5036044;28;20225;-78
2021/06/05 10:37:24;;;;;;;1999.90;999.90;;;17.20;99.90;;;;;;5043056;28;20186;-78
2021/06/05 10:39:51;;;;;;;1999.90;999.90;;;17.20;99.90;;;;;;5030262;28;20182;-78
2021/06/05 10:42:51;;;;;;;1999.90;999.90;;;17.30;99.90;;;;;;5035752;28;20223;-78
2021/06/05 10:45:29;;;;;;;1999.90;999.90;;;17.40;99.90;;;;;;5008758;28;20221;-78
2021/06/05 10:48:18;;;;;;;1999.90;999.90;;;17.30;99.90;;;;;;5036085;28;20178;-78
2021/06/05 10:51:00;;;;;;;1999.90;999.90;;;17.30;99.90;;;;;;5040262;28;20179;-77
2021/06/05 10:53:35;;;;;;;1999.90;999.90;;;17.30;99.90;;;;;;5040673;28;20229;-78
2021/06/05 10:56:18;;;;;;;1999.90;999.90;;;17.30;99.90;;;;;;5036718;28;20208;-78
2021/06/05 10:58:51;;;;;;;1999.90;999.90;;;17.40;99.90;;;;;;5036292;28;20182;-78
2021/06/05 11:01:28;;;;;;;1999.90;999.90;;;17.40;99.90;;;;;;5035718;28;20181;-78
2021/06/05 11:04:03;;;;;;;1999.90;999.90;;;17.50;99.90;;;;;;5050449;28;20210;-78
2021/06/05 11:06:59;;;;;;;1999.90;999.90;;;17.40;99.90;;;;;;5037581;28;20242;-78
2021/06/05 11:09:31;;;;;;;1999.90;999.90;;;17.40;99.90;;;;;;5035724;28;20205;-79
2021/06/05 11:12:23;;;;;;;1999.90;999.90;;;17.40;99.90;;;;;;5036123;28;20262;-78
2021/06/05 11:14:51;;;;;;;1999.90;999.90;;;17.50;99.90;;;;;;5034082;28;20200;-79
2021/06/05 15:22:14;;;;;;;1999.90;999.90;;;17.10;99.90;;;;;;5136054;27;20295;-72
2021/06/05 15:24:41;;;;;;;1999.90;999.90;;;16.30;99.90;;;;;;5109365;28;20196;-72
2021/06/05 15:27:08;;;;;;;1999.90;999.90;;;16.30;99.90;;;;;;5101407;28;20176;-74
2021/06/05 15:29:34;;;;;;;1999.90;999.90;;;16.20;99.90;;;;;;5105648;28;20258;-75
2021/06/05 15:32:00;;;;;;;1999.90;999.90;;;16.20;99.90;;;;;;5111104;28;20181;-74
2021/06/05 15:34:26;;;;;;;1999.90;999.90;;;16.20;99.90;;;;;;5109848;28;20210;-74
2021/06/05 15:36:53;;;;;;;1999.90;999.90;;;16.20;99.90;;;;;;5104711;28;20172;-73
2021/06/05 15:39:19;;;;;;;1999.90;999.90;;;16.20;99.90;;;;;;5111042;28;20183;-74
2021/06/05 15:41:45;;;;;;;1999.90;999.90;;;16.30;99.90;;;;;;5108483;28;20196;-73
2021/06/05 15:44:11;;;;;;;1999.90;999.90;;;16.40;99.90;;;;;;5108723;28;20693;-74
2021/06/05 15:46:36;;;;;;;1999.90;999.90;;;16.50;99.90;;;;;;5107913;28;20164;-75
2021/06/05 15:49:03;;;;;;;1999.90;999.90;;;16.60;99.90;;;;;;5104319;28;20172;-75
2021/06/05 15:51:40;;;;;;;1999.90;999.90;;;16.60;99.90;;;;;;5108593;28;20201;-74
2021/06/05 15:54:09;;;;;;;1999.90;999.90;;;16.50;99.90;;;;;;5111085;28;20252;-74
2021/06/05 15:56:36;;;;;;;1999.90;999.90;;;16.20;99.90;;;;;;5097137;28;20237;-74
2021/06/05 15:59:04;;;;;;;1999.90;999.90;;;16.10;99.90;;;;;;5107185;28;20179;-73
2021/06/05 16:01:31;;;;;;;1999.90;999.90;;;15.90;99.90;;;;;;5103689;28;20197;-74
2021/06/05 16:04:02;;;;;;;1999.90;999.90;;;15.90;99.90;;;;;;5110769;28;20562;-73
2021/06/05 16:06:28;;;;;;;1999.90;999.90;;;15.90;99.90;;;;;;5109174;28;20197;-74
2021/06/05 16:08:54;;;;;;;1999.90;999.90;;;15.80;99.90;;;;;;5101033;28;20661;-74
2021/06/05 16:11:21;;;;;;;1999.90;999.90;;;15.90;99.90;;;;;;5096779;28;20184;-72
2021/06/05 16:13:46;;;;;;;1999.90;999.90;;;15.90;99.90;;;;;;5099640;28;20200;-73
2021/06/05 16:16:15;;;;;;;1999.90;999.90;;;15.90;99.90;;;;;;5095022;28;20191;-74